Time;durP1;ratioP1;P1;durP2;ratioP2;P2;SDS_P1;SDS_P2;PMS_P1;PMS_P2;Temp;Humidity;BMP_temperature;BMP_pressure;BME280_temperature;BME280_humidity;BME280_pressure;Samples;Min_cycle;Max_cycle;Signal;HPM_P1;HPM_P2
2021/11/28 00:00:42;;;;;;;41.33;29.50;;;4.70;99.90;;;;;;4972344;28;20232;-85
2021/11/28 00:03:10;;;;;;;39.40;28.30;;;4.70;99.90;;;;;;4989028;28;20231;-86
2021/11/28 00:05:37;;;;;;;41.73;29.37;;;4.70;99.90;;;;;;4990960;28;20218;-85
2021/11/28 00:08:22;;;;;;;38.13;28.30;;;4.60;99.90;;;;;;4991446;28;20192;-87
2021/11/28 00:11:06;;;;;;;44.47;28.87;;;4.70;99.90;;;;;;4991491;28;20203;-84
2021/11/28 00:13:45;;;;;;;35.83;26.10;;;4.70;99.90;;;;;;4991299;28;20207;-85
2021/11/28 00:16:13;;;;;;;38.77;28.70;;;4.70;99.90;;;;;;4990078;28;20211;-84
2021/11/28 00:18:40;;;;;;;42.60;30.00;;;4.70;99.90;;;;;;4989012;28;20195;-84
2021/11/28 00:21:07;;;;;;;41.30;29.20;;;4.70;99.90;;;;;;4989715;28;20806;-86
2021/11/28 00:23:34;;;;;;;39.00;27.50;;;4.70;99.90;;;;;;4990627;28;20224;-85
2021/11/28 00:26:03;;;;;;;38.00;27.77;;;4.70;99.90;;;;;;4990533;28;20611;-86
2021/11/28 00:28:30;;;;;;;40.90;29.40;;;4.70;99.90;;;;;;4991908;28;20218;-86
2021/11/28 00:30:57;;;;;;;39.73;28.73;;;4.70;99.90;;;;;;4994494;28;20199;-87
2021/11/28 00:33:24;;;;;;;39.00;27.37;;;4.70;99.90;;;;;;4994887;28;20211;-86
2021/11/28 00:35:51;;;;;;;39.70;27.50;;;4.70;99.90;;;;;;4984895;28;20220;-85
2021/11/28 00:38:18;;;;;;;37.63;25.87;;;4.70;99.90;;;;;;4974973;28;20205;-85
2021/11/28 00:40:45;;;;;;;40.53;27.10;;;4.70;99.90;;;;;;4975232;28;20215;-84
2021/11/28 00:43:13;;;;;;;40.13;27.80;;;4.70;99.90;;;;;;4974616;28;20256;-83
2021/11/28 00:45:40;;;;;;;36.30;25.57;;;4.60;99.90;;;;;;4976650;28;20205;-85
2021/11/28 00:48:06;;;;;;;31.83;22.80;;;4.60;99.90;;;;;;4995023;28;20204;-87
2021/11/28 00:50:44;;;;;;;30.77;22.33;;;4.50;99.90;;;;;;4994258;28;20220;-87
2021/11/28 00:53:12;;;;;;;27.23;21.17;;;4.50;99.90;;;;;;4994811;28;20204;-85
2021/11/28 00:55:39;;;;;;;32.30;24.07;;;4.40;99.90;;;;;;4994191;28;20263;-84
2021/11/28 00:58:05;;;;;;;31.47;24.13;;;4.40;99.90;;;;;;4994191;28;20220;-84
2021/11/28 01:00:34;;;;;;;33.73;24.47;;;4.30;99.90;;;;;;4993869;28;20212;-85
2021/11/28 01:03:01;;;;;;;33.07;24.80;;;4.30;99.90;;;;;;4992733;28;20223;-85
2021/11/28 01:05:27;;;;;;;33.67;24.63;;;4.30;99.90;;;;;;4993674;28;20196;-85
2021/11/28 01:07:54;;;;;;;35.10;26.23;;;4.20;99.90;;;;;;4994033;28;20204;-84
2021/11/28 01:10:21;;;;;;;31.53;23.83;;;4.20;99.90;;;;;;4991133;28;20562;-82
2021/11/28 01:12:48;;;;;;;32.77;24.50;;;4.20;99.90;;;;;;4993752;28;20222;-85
2021/11/28 01:15:16;;;;;;;28.37;21.07;;;4.20;99.90;;;;;;4993982;28;20291;-85
2021/11/28 01:17:44;;;;;;;29.70;22.20;;;4.30;99.90;;;;;;4991938;28;20212;-85
2021/11/28 01:20:12;;;;;;;33.07;23.73;;;4.20;99.90;;;;;;4985911;28;20255;-86
2021/11/28 01:22:39;;;;;;;31.80;23.97;;;4.20;99.90;;;;;;4972316;28;20252;-87
2021/11/28 01:25:08;;;;;;;40.00;26.90;;;4.20;99.90;;;;;;4974847;28;20204;-85
2021/11/28 01:27:36;;;;;;;34.83;25.00;;;4.20;99.90;;;;;;4974809;28;20205;-83
2021/11/28 01:30:05;;;;;;;33.80;25.13;;;4.20;99.90;;;;;;4973935;28;20212;-87
2021/11/28 01:32:32;;;;;;;31.73;23.23;;;4.20;99.90;;;;;;4976209;28;20209;-87
2021/11/28 01:35:00;;;;;;;34.47;23.90;;;4.10;99.90;;;;;;4993617;28;20193;-86
2021/11/28 01:37:27;;;;;;;31.70;22.73;;;4.10;99.90;;;;;;4993354;28;20207;-86
2021/11/28 01:39:53;;;;;;;36.60;25.73;;;4.10;99.90;;;;;;4993300;28;20216;-85
2021/11/28 01:42:38;;;;;;;34.73;25.17;;;4.10;99.90;;;;;;4993592;28;20223;-87
2021/11/28 01:45:07;;;;;;;36.37;24.73;;;4.20;99.90;;;;;;4992786;28;20208;-86
2021/11/28 01:47:33;;;;;;;37.23;24.93;;;4.20;99.90;;;;;;4992580;28;20968;-86
2021/11/28 01:50:02;;;;;;;35.87;24.43;;;4.20;99.90;;;;;;4992672;28;20200;-85
2021/11/28 01:52:29;;;;;;;34.97;24.07;;;4.20;99.90;;;;;;4993137;28;20200;-87
2021/11/28 01:54:56;;;;;;;32.93;22.87;;;4.30;99.90;;;;;;4992834;28;20204;-85
2021/11/28 01:57:23;;;;;;;33.73;22.00;;;4.30;99.90;;;;;;4992489;28;20206;-86
2021/11/28 01:59:50;;;;;;;32.67;23.23;;;4.40;99.90;;;;;;4974016;28;20208;-84
2021/11/28 02:02:19;;;;;;;31.17;22.27;;;4.40;99.90;;;;;;4977536;28;20223;-84
2021/11/28 02:04:46;;;;;;;31.93;22.07;;;4.50;99.90;;;;;;4992767;28;20212;-85
2021/11/28 02:07:15;;;;;;;31.57;20.73;;;4.40;99.90;;;;;;4993174;28;20204;-84
2021/11/28 02:09:42;;;;;;;33.43;22.27;;;4.40;99.90;;;;;;4991257;28;20570;-86
2021/11/28 02:12:09;;;;;;;32.37;22.27;;;4.40;99.90;;;;;;4993005;28;20214;-85
2021/11/28 02:14:37;;;;;;;29.83;22.00;;;4.40;99.90;;;;;;4993285;28;20208;-86
2021/11/28 02:17:05;;;;;;;28.73;19.47;;;4.30;99.90;;;;;;4992564;28;20203;-86
2021/11/28 02:19:32;;;;;;;28.93;20.70;;;4.20;99.90;;;;;;4991194;28;20219;-85
2021/11/28 02:22:00;;;;;;;29.27;20.07;;;4.20;99.90;;;;;;4966549;28;20245;-85
2021/11/28 02:24:27;;;;;;;27.80;20.07;;;4.10;99.90;;;;;;4953881;29;20226;-85
2021/11/28 02:26:53;;;;;;;28.23;18.77;;;4.10;99.90;;;;;;4953375;28;20557;-83
2021/11/28 02:29:21;;;;;;;24.37;18.50;;;4.00;99.90;;;;;;4952779;28;20216;-85
2021/11/28 02:31:48;;;;;;;25.23;17.63;;;4.00;99.90;;;;;;4982494;28;20226;-86
2021/11/28 02:34:15;;;;;;;22.63;16.40;;;3.90;99.90;;;;;;4990520;28;20233;-86
2021/11/28 02:36:42;;;;;;;22.33;17.37;;;3.90;99.90;;;;;;4984083;28;20329;-86
2021/11/28 02:39:10;;;;;;;20.87;15.47;;;3.80;99.90;;;;;;4973247;28;20201;-83
2021/11/28 02:41:38;;;;;;;19.53;15.03;;;3.80;99.90;;;;;;4971615;28;20215;-85
2021/11/28 02:44:05;;;;;;;19.17;14.47;;;3.70;99.90;;;;;;4982286;28;20785;-84
2021/11/28 02:46:32;;;;;;;19.80;14.50;;;3.60;99.90;;;;;;4991566;28;20204;-85
2021/11/28 02:48:58;;;;;;;20.80;14.33;;;3.60;99.90;;;;;;4991744;28;20210;-84
2021/11/28 02:51:28;;;;;;;17.63;13.63;;;3.50;99.90;;;;;;4990305;28;20204;-85
2021/11/28 02:53:55;;;;;;;19.27;13.67;;;3.50;99.90;;;;;;4972782;28;20876;-85
2021/11/28 02:56:23;;;;;;;19.27;14.13;;;3.40;99.90;;;;;;4971986;28;20216;-84
2021/11/28 02:58:50;;;;;;;20.30;14.30;;;3.40;99.90;;;;;;4972183;28;20240;-85
2021/11/28 03:01:20;;;;;;;18.57;13.63;;;3.40;99.90;;;;;;4971908;28;20203;-87
2021/11/28 03:03:48;;;;;;;20.97;15.53;;;3.30;99.90;;;;;;4972446;28;20228;-86
2021/11/28 03:06:14;;;;;;;18.37;13.17;;;3.30;99.90;;;;;;4972247;28;20209;-87
2021/11/28 03:08:41;;;;;;;22.33;16.20;;;3.30;99.90;;;;;;4972502;28;20204;-85
2021/11/28 03:11:10;;;;;;;18.93;14.73;;;3.30;99.90;;;;;;4942003;28;20248;-84
2021/11/28 03:13:43;;;;;;;21.83;14.60;;;3.20;99.90;;;;;;4952878;28;20213;-86
2021/11/28 03:16:12;;;;;;;18.97;12.87;;;3.10;99.90;;;;;;4952630;29;20264;-85
2021/11/28 03:18:40;;;;;;;18.73;14.00;;;3.10;99.90;;;;;;4955523;28;20208;-84
2021/11/28 03:21:08;;;;;;;19.60;14.10;;;3.10;99.90;;;;;;4982731;28;20293;-86
2021/11/28 03:23:36;;;;;;;17.17;13.73;;;3.00;99.90;;;;;;4990905;28;20227;-84
2021/11/28 03:26:06;;;;;;;18.57;13.63;;;3.00;99.90;;;;;;4990611;28;20615;-84
2021/11/28 03:28:33;;;;;;;18.70;13.47;;;3.00;99.90;;;;;;4991056;28;20224;-81
2021/11/28 03:31:01;;;;;;;19.67;14.40;;;2.90;99.90;;;;;;4990694;28;20208;-85
2021/11/28 03:33:28;;;;;;;17.67;13.27;;;2.90;99.90;;;;;;4989833;28;20204;-86
2021/11/28 03:35:55;;;;;;;18.63;13.23;;;2.90;99.90;;;;;;4990557;28;20200;-83
2021/11/28 03:38:21;;;;;;;16.67;12.43;;;2.80;99.90;;;;;;4988579;28;20222;-82
2021/11/28 03:40:48;;;;;;;17.27;12.73;;;2.80;99.90;;;;;;4990728;28;20210;-85
2021/11/28 03:43:15;;;;;;;17.03;12.77;;;2.80;99.90;;;;;;4990408;28;20248;-86
2021/11/28 03:45:42;;;;;;;18.70;13.33;;;2.80;99.90;;;;;;4978880;28;20216;-85
2021/11/28 03:48:11;;;;;;;19.63;14.53;;;2.70;99.90;;;;;;4970650;28;20201;-85
2021/11/28 03:50:38;;;;;;;18.43;13.13;;;2.70;99.90;;;;;;4989319;28;20274;-85
2021/11/28 03:53:05;;;;;;;19.37;13.77;;;2.70;99.90;;;;;;4990545;28;20211;-83
2021/11/28 03:55:32;;;;;;;20.30;15.10;;;2.60;99.90;;;;;;4990522;28;20215;-83
2021/11/28 03:58:00;;;;;;;20.13;14.60;;;2.60;99.90;;;;;;4990020;28;20235;-84
2021/11/28 04:00:26;;;;;;;19.43;13.67;;;2.60;99.90;;;;;;4989956;28;20204;-86
2021/11/28 04:02:53;;;;;;;19.10;14.23;;;2.50;99.90;;;;;;4990257;28;20200;-87
2021/11/28 04:05:22;;;;;;;18.90;12.97;;;2.50;99.90;;;;;;4993799;28;20206;-83
2021/11/28 04:07:49;;;;;;;18.93;13.27;;;2.50;99.90;;;;;;4979727;28;20231;-82
2021/11/28 04:10:15;;;;;;;22.27;15.83;;;2.50;99.90;;;;;;4993667;23;20654;-83
2021/11/28 04:12:42;;;;;;;21.73;15.43;;;2.50;99.90;;;;;;5033977;28;20202;-84
2021/11/28 04:15:10;;;;;;;19.57;13.37;;;2.50;99.90;;;;;;5032487;28;20198;-81
2021/11/28 04:17:37;;;;;;;21.07;14.60;;;2.40;99.90;;;;;;5033411;28;20553;-83
2021/11/28 04:20:06;;;;;;;22.33;15.47;;;2.40;99.90;;;;;;5032157;28;20203;-85
2021/11/28 04:22:35;;;;;;;21.00;13.73;;;2.40;99.90;;;;;;5032712;28;20209;-85
2021/11/28 04:25:03;;;;;;;18.77;13.33;;;2.40;99.90;;;;;;5032722;28;20657;-84
2021/11/28 04:27:30;;;;;;;21.10;14.27;;;2.30;99.90;;;;;;5031230;28;20217;-80
2021/11/28 04:29:57;;;;;;;19.87;13.20;;;2.30;99.90;;;;;;5032314;28;20222;-81
2021/11/28 04:32:24;;;;;;;21.30;15.20;;;2.30;99.90;;;;;;5032331;28;20629;-84
2021/11/28 04:34:51;;;;;;;22.00;14.20;;;2.30;99.90;;;;;;5031381;28;20213;-82
2021/11/28 04:37:17;;;;;;;18.73;13.77;;;2.30;99.90;;;;;;5031515;28;20210;-84
2021/11/28 04:39:45;;;;;;;21.43;14.50;;;2.30;99.90;;;;;;5032264;28;20191;-85
2021/11/28 04:42:13;;;;;;;20.70;14.10;;;2.20;99.90;;;;;;5032243;28;20230;-86
2021/11/28 04:44:40;;;;;;;19.73;13.53;;;2.20;99.90;;;;;;5012377;28;20223;-83
2021/11/28 04:47:07;;;;;;;21.90;15.33;;;2.20;99.90;;;;;;5019398;28;20500;-85
2021/11/28 04:49:34;;;;;;;19.53;13.87;;;2.20;99.90;;;;;;5031112;28;20630;-86
2021/11/28 04:52:01;;;;;;;21.80;13.70;;;2.20;99.90;;;;;;5032197;28;20203;-86
2021/11/28 04:54:27;;;;;;;24.83;15.00;;;2.20;99.90;;;;;;5031730;28;20217;-80
2021/11/28 04:56:56;;;;;;;23.47;14.03;;;2.20;99.90;;;;;;5031251;28;20207;-84
2021/11/28 04:59:22;;;;;;;22.60;15.87;;;2.20;99.90;;;;;;5031083;28;20233;-79
2021/11/28 05:01:49;;;;;;;21.30;14.80;;;2.20;99.90;;;;;;5030681;28;20202;-80
2021/11/28 05:04:16;;;;;;;21.43;13.60;;;2.10;99.90;;;;;;5014436;28;20572;-81
2021/11/28 05:06:43;;;;;;;23.70;14.87;;;2.10;99.90;;;;;;5011465;28;20195;-81
2021/11/28 05:09:10;;;;;;;21.93;14.57;;;2.10;99.90;;;;;;4992775;28;20204;-82
2021/11/28 05:11:37;;;;;;;19.40;12.97;;;2.10;99.90;;;;;;4991035;28;20278;-79
2021/11/28 05:14:05;;;;;;;23.33;15.43;;;2.10;99.90;;;;;;4991497;28;20204;-86
2021/11/28 05:16:33;;;;;;;21.87;14.37;;;2.00;99.90;;;;;;5007192;28;20207;-81
2021/11/28 05:18:59;;;;;;;22.03;13.90;;;2.10;99.90;;;;;;5011962;28;20231;-81
2021/11/28 05:21:26;;;;;;;18.60;12.57;;;2.00;99.90;;;;;;5010637;28;20218;-81
2021/11/28 05:23:53;;;;;;;24.63;15.93;;;2.00;99.90;;;;;;5023910;28;20261;-83
2021/11/28 05:26:20;;;;;;;24.80;16.03;;;2.00;99.90;;;;;;5031579;28;20214;-81
2021/11/28 05:28:47;;;;;;;24.33;15.27;;;2.00;99.90;;;;;;5033125;28;20194;-80
2021/11/28 05:31:18;;;;;;;25.33;15.93;;;2.00;99.90;;;;;;5035999;28;20194;-82
2021/11/28 05:33:46;;;;;;;25.50;15.67;;;2.00;99.90;;;;;;4996056;28;20207;-82
2021/11/28 05:36:13;;;;;;;21.93;13.97;;;2.10;99.90;;;;;;4993576;28;20208;-82
2021/11/28 05:38:41;;;;;;;23.53;14.43;;;2.10;99.90;;;;;;4991564;28;20204;-79
2021/11/28 05:41:08;;;;;;;23.83;15.27;;;2.10;99.90;;;;;;4997815;28;20681;-81
2021/11/28 05:43:40;;;;;;;19.53;12.33;;;2.10;99.90;;;;;;5008408;28;20242;-82
2021/11/28 05:46:07;;;;;;;20.50;13.37;;;2.10;99.90;;;;;;5009315;28;20310;-79
2021/11/28 05:48:36;;;;;;;21.17;13.83;;;2.10;99.90;;;;;;5009850;28;20207;-83
2021/11/28 05:51:03;;;;;;;18.47;12.40;;;2.10;99.90;;;;;;5009187;28;20548;-79
2021/11/28 05:53:31;;;;;;;19.00;12.93;;;2.10;99.90;;;;;;5008580;28;20203;-80
2021/11/28 05:55:58;;;;;;;21.40;13.60;;;2.10;99.90;;;;;;5008875;28;20195;-80
2021/11/28 05:58:25;;;;;;;19.87;12.67;;;2.10;99.90;;;;;;5008157;28;20234;-81
2021/11/28 06:00:52;;;;;;;21.10;12.57;;;2.10;99.90;;;;;;4993988;28;20211;-82
2021/11/28 06:03:19;;;;;;;20.60;12.43;;;2.10;99.90;;;;;;4988747;28;20204;-83
2021/11/28 06:05:48;;;;;;;20.80;12.53;;;2.20;99.90;;;;;;5003270;28;20219;-83
2021/11/28 06:08:15;;;;;;;16.30;10.13;;;2.20;99.90;;;;;;5008064;28;20199;-85
2021/11/28 06:10:42;;;;;;;16.10;10.67;;;2.20;99.90;;;;;;5008939;28;20920;-82
2021/11/28 06:13:09;;;;;;;14.90;9.80;;;2.30;99.90;;;;;;5009272;28;20211;-82
2021/11/28 06:15:36;;;;;;;17.67;9.83;;;2.30;99.90;;;;;;5008553;28;20643;-86
2021/11/28 06:18:03;;;;;;;13.83;9.83;;;2.30;99.90;;;;;;4990094;28;20519;-83
2021/11/28 06:20:30;;;;;;;12.10;8.53;;;2.40;99.90;;;;;;4990862;28;20215;-81
2021/11/28 06:22:59;;;;;;;14.97;9.00;;;2.40;99.90;;;;;;4991029;28;20759;-82
2021/11/28 06:25:26;;;;;;;13.60;8.20;;;2.50;99.90;;;;;;4992137;28;20231;-82
2021/11/28 06:27:53;;;;;;;12.00;8.30;;;2.50;99.90;;;;;;4990074;28;20208;-83
2021/11/28 06:30:20;;;;;;;10.50;7.40;;;2.60;99.90;;;;;;4990043;28;20204;-83
2021/11/28 06:32:46;;;;;;;10.40;5.47;;;2.70;99.90;;;;;;4989472;28;20210;-80
2021/11/28 06:35:14;;;;;;;10.10;5.53;;;2.80;99.90;;;;;;4990132;28;20964;-85
2021/11/28 06:37:41;;;;;;;7.93;5.83;;;2.90;99.90;;;;;;4990615;28;20877;-84
2021/11/28 06:40:10;;;;;;;7.97;4.70;;;2.90;99.90;;;;;;4990345;28;20319;-82
2021/11/28 06:42:37;;;;;;;9.53;3.83;;;3.10;99.90;;;;;;5001405;28;20222;-79
2021/11/28 06:45:05;;;;;;;4.93;3.53;;;3.20;99.90;;;;;;5010133;28;20635;-85
2021/11/28 06:47:31;;;;;;;6.17;3.27;;;3.30;99.90;;;;;;5010260;28;20191;-88
2021/11/28 06:49:58;;;;;;;5.90;3.87;;;3.40;99.90;;;;;;5010031;28;20214;-82
2021/11/28 06:52:25;;;;;;;8.20;3.30;;;3.50;99.90;;;;;;5011008;28;20308;-85
2021/11/28 06:54:52;;;;;;;6.70;3.40;;;3.60;99.90;;;;;;5011634;28;20210;-89
2021/11/28 06:57:20;;;;;;;6.23;3.00;;;3.70;99.90;;;;;;5010661;28;20524;-88
2021/11/28 06:59:46;;;;;;;7.73;2.60;;;3.80;99.90;;;;;;5007702;28;20204;-85
2021/11/28 07:02:13;;;;;;;7.87;2.60;;;4.00;99.90;;;;;;4991975;28;20200;-85
2021/11/28 07:04:42;;;;;;;9.10;2.60;;;4.10;99.90;;;;;;5003686;28;20230;-88
2021/11/28 07:07:09;;;;;;;5.30;2.10;;;4.20;99.90;;;;;;5011887;28;20370;-88
2021/11/28 07:09:36;;;;;;;3.40;2.17;;;4.30;99.90;;;;;;5012377;28;20203;-91
2021/11/28 07:12:03;;;;;;;3.70;1.80;;;4.30;99.90;;;;;;5000111;28;20243;-88
2021/11/28 07:14:31;;;;;;;2.97;1.30;;;4.30;99.90;;;;;;4992174;28;20203;-91
2021/11/28 07:16:58;;;;;;;1.90;1.70;;;4.30;99.90;;;;;;4990716;28;20212;-87
2021/11/28 07:19:25;;;;;;;1.87;1.30;;;4.30;99.90;;;;;;5020744;28;20214;-84
2021/11/28 07:21:54;;;;;;;2.20;1.13;;;4.30;99.90;;;;;;5032460;28;20203;-83
2021/11/28 07:24:21;;;;;;;1.67;0.90;;;4.30;99.90;;;;;;5031113;28;20227;-85
2021/11/28 07:26:48;;;;;;;1.23;1.10;;;4.30;99.90;;;;;;5028058;28;20238;-85
2021/11/28 07:29:15;;;;;;;0.80;0.60;;;4.20;99.90;;;;;;5030843;28;20218;-86
2021/11/28 07:31:43;;;;;;;0.97;0.80;;;4.20;99.90;;;;;;5016309;28;20208;-87
2021/11/28 07:34:10;;;;;;;1.07;0.80;;;4.20;99.90;;;;;;4992808;28;20196;-87
2021/11/28 07:36:37;;;;;;;1.17;0.80;;;4.20;99.90;;;;;;4991962;28;20571;-89
2021/11/28 07:39:07;;;;;;;2.03;0.80;;;4.20;99.90;;;;;;4993265;28;20215;-92
2021/11/28 07:41:33;;;;;;;1.47;0.90;;;4.20;99.90;;;;;;4992268;28;20207;-90
2021/11/28 07:44:00;;;;;;;0.77;0.77;;;4.20;99.90;;;;;;4999803;28;20199;-87
2021/11/28 07:46:27;;;;;;;1.77;0.90;;;4.20;99.90;;;;;;5010212;28;20203;-87
2021/11/28 07:48:56;;;;;;;1.57;0.90;;;4.20;99.90;;;;;;5011382;28;20512;-87
2021/11/28 07:51:23;;;;;;;1.20;1.10;;;4.20;99.90;;;;;;5009307;28;20226;-85
2021/11/28 07:53:51;;;;;;;2.13;0.90;;;4.20;99.90;;;;;;5011693;28;20451;-86
2021/11/28 07:56:19;;;;;;;2.47;0.70;;;4.20;99.90;;;;;;5010061;28;20246;-89
2021/11/28 07:58:46;;;;;;;1.60;0.77;;;4.30;99.90;;;;;;5017674;28;20230;-86
2021/11/28 08:01:13;;;;;;;1.03;0.80;;;4.30;99.90;;;;;;5011457;28;20276;-85
2021/11/28 08:03:40;;;;;;;1.83;1.00;;;4.30;99.90;;;;;;5011291;28;20211;-83
2021/11/28 08:06:09;;;;;;;4.43;0.97;;;4.40;99.90;;;;;;5012089;28;20247;-82
2021/11/28 08:08:36;;;;;;;1.67;1.00;;;4.40;99.90;;;;;;5011209;28;20203;-86
2021/11/28 08:11:02;;;;;;;2.53;0.80;;;4.40;99.90;;;;;;5010426;28;20258;-86
2021/11/28 08:13:29;;;;;;;1.57;0.50;;;4.40;99.90;;;;;;5011015;28;20194;-86
2021/11/28 08:15:56;;;;;;;0.60;0.60;;;4.30;99.90;;;;;;5012207;28;20492;-87
2021/11/28 08:18:23;;;;;;;1.07;0.87;;;4.20;99.90;;;;;;4999917;28;20204;-88
2021/11/28 08:20:50;;;;;;;1.20;0.90;;;4.10;99.90;;;;;;4999456;28;20215;-84
2021/11/28 08:23:18;;;;;;;1.00;0.70;;;4.10;99.90;;;;;;5010757;28;20207;-84
2021/11/28 08:25:45;;;;;;;1.20;0.60;;;4.20;99.90;;;;;;5016334;28;20238;-83
2021/11/28 08:28:12;;;;;;;5.37;1.07;;;4.20;99.90;;;;;;5029819;28;20289;-85
2021/11/28 08:30:41;;;;;;;2.70;0.60;;;4.10;99.90;;;;;;5018879;28;20227;-86
2021/11/28 08:33:08;;;;;;;1.70;0.77;;;4.10;99.90;;;;;;5009716;28;20207;-83
2021/11/28 08:35:35;;;;;;;1.33;0.60;;;4.10;99.90;;;;;;5008747;28;20200;-84
2021/11/28 08:38:03;;;;;;;0.80;0.73;;;4.10;99.90;;;;;;5010043;28;20211;-83
2021/11/28 08:40:32;;;;;;;1.93;1.00;;;4.10;99.90;;;;;;5016265;28;20218;-83
2021/11/28 08:42:59;;;;;;;1.50;0.80;;;4.20;99.90;;;;;;5028726;28;20214;-81
2021/11/28 08:45:27;;;;;;;1.70;1.20;;;4.10;99.90;;;;;;5019967;28;20235;-83
2021/11/28 08:47:53;;;;;;;2.07;0.83;;;4.10;99.90;;;;;;5008041;28;20209;-84
2021/11/28 08:50:20;;;;;;;1.70;0.70;;;4.10;99.90;;;;;;5008504;28;20215;-86
2021/11/28 08:52:47;;;;;;;0.97;0.80;;;4.10;99.90;;;;;;5014282;28;20199;-86
2021/11/28 08:55:16;;;;;;;1.30;0.90;;;4.10;99.90;;;;;;5014480;28;20929;-85
2021/11/28 08:57:45;;;;;;;0.83;0.70;;;4.10;99.90;;;;;;5034249;28;20226;-86
2021/11/28 09:00:13;;;;;;;1.20;0.87;;;4.10;99.90;;;;;;5021532;28;20232;-88
2021/11/28 09:02:41;;;;;;;1.53;0.70;;;4.10;99.90;;;;;;5012659;28;20206;-88
2021/11/28 09:05:08;;;;;;;2.60;1.20;;;4.10;99.90;;;;;;5011441;28;20223;-81
2021/11/28 09:07:35;;;;;;;1.00;0.90;;;4.20;99.90;;;;;;5010579;28;20204;-88
2021/11/28 09:10:03;;;;;;;1.57;0.60;;;4.20;99.90;;;;;;5011905;28;20226;-82
2021/11/28 09:12:30;;;;;;;0.70;0.67;;;4.20;99.90;;;;;;5012198;28;20207;-84
2021/11/28 09:14:58;;;;;;;2.97;0.90;;;4.10;99.90;;;;;;5029676;28;20599;-87
2021/11/28 09:17:25;;;;;;;0.83;0.60;;;4.10;99.90;;;;;;5030755;28;20210;-89
2021/11/28 09:19:56;;;;;;;2.40;0.70;;;4.10;99.90;;;;;;5033154;28;20202;-88
2021/11/28 09:22:33;;;;;;;1.10;0.53;;;4.10;99.90;;;;;;5032180;28;20289;-88
2021/11/28 09:24:59;;;;;;;2.10;1.07;;;4.10;99.90;;;;;;5030192;28;20230;-88
2021/11/28 09:27:27;;;;;;;0.53;0.53;;;4.10;99.90;;;;;;5028654;28;20204;-86
2021/11/28 09:29:54;;;;;;;1.00;0.70;;;4.10;99.90;;;;;;5032525;28;20202;-86
2021/11/28 09:32:22;;;;;;;0.77;0.60;;;4.10;99.90;;;;;;5020225;28;20214;-85
2021/11/28 09:34:49;;;;;;;2.10;1.07;;;4.10;99.90;;;;;;5010659;28;20207;-81
2021/11/28 09:37:16;;;;;;;3.50;0.70;;;4.10;99.90;;;;;;5012848;28;20211;-87
2021/11/28 09:39:45;;;;;;;1.03;0.60;;;4.20;99.90;;;;;;5011979;28;20591;-81
2021/11/28 09:42:15;;;;;;;0.80;0.60;;;4.20;99.90;;;;;;5025230;28;20217;-85
2021/11/28 09:44:43;;;;;;;1.90;0.53;;;4.30;99.90;;;;;;5032121;28;20213;-81
2021/11/28 09:47:12;;;;;;;1.10;0.50;;;4.30;99.90;;;;;;5032013;28;20547;-88
2021/11/28 09:49:44;;;;;;;2.93;0.80;;;4.40;99.90;;;;;;4993481;28;20230;-84
2021/11/28 09:52:15;;;;;;;0.63;0.60;;;4.40;99.90;;;;;;5010878;28;20313;-88
2021/11/28 09:54:44;;;;;;;1.50;0.77;;;4.50;99.90;;;;;;4992483;28;20223;-85
2021/11/28 09:57:13;;;;;;;1.23;0.50;;;4.50;99.90;;;;;;4989977;28;20209;-80
2021/11/28 09:59:40;;;;;;;1.07;0.50;;;4.50;99.90;;;;;;4989352;28;20575;-87
2021/11/28 10:02:08;;;;;;;0.50;0.50;;;4.50;99.90;;;;;;4988957;28;20215;-81
2021/11/28 10:04:35;;;;;;;1.67;0.60;;;4.60;99.90;;;;;;4990808;28;20212;-83
2021/11/28 10:07:03;;;;;;;1.47;0.80;;;4.60;99.90;;;;;;4991019;28;20204;-82
2021/11/28 10:09:30;;;;;;;3.67;1.57;;;4.70;99.90;;;;;;5025729;28;20634;-83
2021/11/28 10:12:17;;;;;;;4.33;1.23;;;4.70;99.90;;;;;;5021074;28;20239;-81
2021/11/28 10:14:46;;;;;;;1.13;0.60;;;4.80;99.90;;;;;;5009824;28;20483;-80
2021/11/28 10:17:13;;;;;;;0.97;0.67;;;4.80;99.90;;;;;;5024647;28;20234;-83
2021/11/28 10:19:40;;;;;;;1.53;0.80;;;4.90;99.90;;;;;;5028816;28;20272;-82
2021/11/28 10:22:09;;;;;;;3.07;0.80;;;4.80;99.90;;;;;;5027831;28;20199;-82
2021/11/28 10:24:36;;;;;;;2.23;0.70;;;4.80;99.90;;;;;;5026446;28;20198;-82
2021/11/28 10:27:08;;;;;;;0.50;0.50;;;4.90;99.90;;;;;;5009883;28;20199;-84
2021/11/28 10:29:37;;;;;;;1.33;0.70;;;5.00;99.90;;;;;;5009910;28;20210;-81
2021/11/28 10:32:06;;;;;;;2.23;1.10;;;4.90;99.90;;;;;;5009456;28;20210;-82
2021/11/28 10:34:37;;;;;;;1.27;0.83;;;5.00;99.90;;;;;;5008768;28;20191;-85
2021/11/28 10:37:06;;;;;;;2.70;0.80;;;5.00;99.90;;;;;;5009660;28;20298;-84
2021/11/28 10:39:43;;;;;;;6.77;3.37;;;5.10;99.90;;;;;;5009213;28;20206;-82
2021/11/28 10:42:14;;;;;;;3.27;0.90;;;5.10;99.90;;;;;;5008439;28;20857;-81
2021/11/28 10:44:40;;;;;;;1.60;0.90;;;5.10;99.90;;;;;;5009781;28;20261;-82
2021/11/28 10:47:12;;;;;;;2.67;0.80;;;5.10;99.90;;;;;;4999152;28;20243;-84
2021/11/28 10:49:41;;;;;;;1.70;0.70;;;5.10;99.90;;;;;;4988980;28;20200;-84
2021/11/28 10:52:10;;;;;;;1.57;0.60;;;5.00;99.90;;;;;;5007393;28;20214;-80
2021/11/28 10:54:42;;;;;;;2.27;0.70;;;5.00;99.90;;;;;;5028108;28;20521;-82
2021/11/28 10:57:18;;;;;;;1.23;0.50;;;5.10;99.90;;;;;;4988772;28;20208;-83
2021/11/28 10:59:54;;;;;;;1.83;1.00;;;5.10;99.90;;;;;;4989730;28;20227;-80
2021/11/28 11:02:26;;;;;;;4.63;0.90;;;5.10;99.90;;;;;;4988997;28;20195;-84
2021/11/28 11:04:55;;;;;;;1.53;0.70;;;5.00;99.90;;;;;;4990049;28;20196;-85
2021/11/28 11:07:23;;;;;;;3.27;0.93;;;5.00;99.90;;;;;;5008432;28;20298;-83
2021/11/28 11:09:52;;;;;;;2.50;0.70;;;5.00;99.90;;;;;;5008968;28;20214;-82
2021/11/28 11:12:21;;;;;;;1.53;0.70;;;5.10;99.90;;;;;;5007972;28;20606;-83
2021/11/28 11:14:48;;;;;;;5.17;0.80;;;5.10;99.90;;;;;;5021163;28;20213;-82
2021/11/28 11:17:16;;;;;;;2.33;0.70;;;5.10;99.90;;;;;;5027946;28;20199;-81
2021/11/28 11:19:46;;;;;;;1.90;0.80;;;5.20;99.90;;;;;;5020867;28;20207;-79
2021/11/28 11:22:18;;;;;;;4.60;0.80;;;5.20;99.90;;;;;;5007430;28;20195;-80
2021/11/28 11:24:51;;;;;;;3.53;0.80;;;5.30;99.90;;;;;;5008284;28;20222;-82
2021/11/28 11:27:22;;;;;;;3.00;1.27;;;5.30;99.90;;;;;;5008353;28;20589;-82
2021/11/28 11:29:51;;;;;;;4.13;1.67;;;5.30;99.90;;;;;;5008050;28;20213;-79
2021/11/28 11:32:21;;;;;;;4.13;2.40;;;5.40;99.90;;;;;;5007123;28;20207;-83
2021/11/28 11:34:50;;;;;;;3.33;1.70;;;5.40;99.90;;;;;;4992344;28;20208;-83
2021/11/28 11:37:18;;;;;;;2.00;0.63;;;5.40;99.90;;;;;;4987941;28;20238;-81
2021/11/28 11:39:47;;;;;;;0.80;0.63;;;5.50;99.90;;;;;;4987613;28;20663;-82
2021/11/28 11:42:16;;;;;;;2.83;1.20;;;5.50;99.90;;;;;;4989225;28;20287;-85
2021/11/28 11:44:46;;;;;;;2.23;1.50;;;5.50;99.90;;;;;;4989696;28;20246;-84
2021/11/28 11:47:13;;;;;;;2.07;0.97;;;5.50;99.90;;;;;;4990144;28;20224;-82
2021/11/28 11:49:41;;;;;;;8.30;4.53;;;5.60;99.90;;;;;;5001001;28;20223;-83
2021/11/28 11:52:09;;;;;;;5.07;2.60;;;5.60;99.90;;;;;;5005167;28;20261;-82
2021/11/28 11:54:42;;;;;;;4.70;3.97;;;5.60;99.90;;;;;;5008842;28;20214;-82
2021/11/28 11:57:13;;;;;;;4.57;3.10;;;5.70;99.90;;;;;;5008496;28;20209;-83
2021/11/28 12:00:02;;;;;;;5.00;2.00;;;5.70;99.90;;;;;;5008318;28;20219;-83
2021/11/28 12:02:31;;;;;;;2.33;1.33;;;5.70;99.90;;;;;;5014948;28;20213;-84
2021/11/28 12:04:59;;;;;;;1.90;1.00;;;5.70;99.90;;;;;;5028092;28;20202;-82
2021/11/28 12:07:48;;;;;;;2.70;1.27;;;5.70;99.90;;;;;;5028068;28;20329;-83
2021/11/28 12:10:36;;;;;;;5.63;3.20;;;5.80;99.90;;;;;;5027619;28;20276;-84
2021/11/28 12:13:06;;;;;;;2.83;1.60;;;5.80;99.90;;;;;;5027235;28;20606;-82
2021/11/28 12:15:36;;;;;;;3.97;1.40;;;5.80;99.90;;;;;;5029894;28;20206;-90
2021/11/28 12:18:03;;;;;;;1.97;0.70;;;5.80;99.90;;;;;;5009585;28;20200;-86
2021/11/28 12:20:59;;;;;;;3.57;0.83;;;5.90;99.90;;;;;;4989356;28;20212;-85
2021/11/28 12:24:05;;;;;;;3.00;0.90;;;5.70;99.90;;;;;;4990565;28;20211;-83
2021/11/28 12:26:38;;;;;;;1.40;0.70;;;5.70;99.90;;;;;;5001631;28;20223;-85
2021/11/28 12:29:24;;;;;;;3.87;1.10;;;5.70;99.90;;;;;;5013671;28;20199;-86
2021/11/28 12:31:55;;;;;;;1.33;0.63;;;5.70;99.90;;;;;;5013508;28;20211;-85
2021/11/28 12:34:22;;;;;;;2.50;1.10;;;5.60;99.90;;;;;;5020454;28;20252;-85
2021/11/28 12:36:51;;;;;;;5.10;1.10;;;5.70;99.90;;;;;;5029834;28;20248;-84
2021/11/28 12:39:37;;;;;;;3.13;1.20;;;5.70;99.90;;;;;;5029544;28;20230;-86
2021/11/28 12:42:06;;;;;;;2.70;0.90;;;5.70;99.90;;;;;;4991896;28;20251;-87
2021/11/28 12:44:35;;;;;;;1.03;0.67;;;5.70;99.90;;;;;;4998124;28;20783;-85
2021/11/28 12:47:19;;;;;;;3.63;0.90;;;5.60;99.90;;;;;;5011437;28;20226;-86
2021/11/28 12:49:50;;;;;;;4.27;1.10;;;5.70;99.90;;;;;;5009472;28;20829;-85
2021/11/28 12:52:46;;;;;;;3.73;1.23;;;5.60;99.90;;;;;;5012160;28;20234;-80
2021/11/28 12:55:20;;;;;;;1.57;0.80;;;5.60;99.90;;;;;;4975505;28;20214;-85